createdAt,value
2019-02-19T00:00:35.476Z,1003.74
2019-02-19T00:01:35.476Z,1003.75
2019-02-19T00:02:35.357Z,1003.74
2019-02-19T00:03:35.309Z,1003.74
2019-02-19T00:04:35.246Z,1003.69
2019-02-19T00:05:35.191Z,1003.69
2019-02-19T00:06:35.150Z,1003.74
2019-02-19T00:07:35.130Z,1003.69
2019-02-19T00:08:35.044Z,1003.74
2019-02-19T00:09:34.977Z,1003.74
2019-02-19T00:10:34.959Z,1003.72
2019-02-19T00:11:34.868Z,1003.68
2019-02-19T00:12:34.838Z,1003.71
2019-02-19T00:13:34.781Z,1003.68
2019-02-19T00:14:34.708Z,1003.68
2019-02-19T00:15:34.655Z,1003.70
2019-02-19T00:16:34.590Z,1003.71
2019-02-19T00:17:34.565Z,1003.68
2019-02-19T00:18:34.478Z,1003.66
2019-02-19T00:19:34.424Z,1003.70
2019-02-19T00:20:34.359Z,1003.67
2019-02-19T00:21:34.320Z,1003.69
2019-02-19T00:22:34.338Z,1003.74
2019-02-19T00:23:34.222Z,1003.72
2019-02-19T00:24:34.163Z,1003.70
2019-02-19T00:25:34.094Z,1003.70
2019-02-19T00:26:34.054Z,1003.67
2019-02-19T00:27:34.035Z,1003.69
2019-02-19T00:28:33.935Z,1003.68
2019-02-19T00:29:33.880Z,1003.69
2019-02-19T00:30:33.846Z,1003.71
2019-02-19T00:31:33.766Z,1003.71
2019-02-19T00:32:33.788Z,1003.73
2019-02-19T00:33:33.667Z,1003.71
2019-02-19T00:34:33.599Z,1003.72
2019-02-19T00:35:33.550Z,1003.68
2019-02-19T00:36:33.503Z,1003.69
2019-02-19T00:37:33.452Z,1003.69
2019-02-19T00:38:33.398Z,1003.69
2019-02-19T00:39:33.362Z,1003.70
2019-02-19T00:40:33.277Z,1003.63
2019-02-19T00:41:33.228Z,1003.66
2019-02-19T00:42:33.179Z,1003.65
2019-02-19T00:43:33.115Z,1003.65
2019-02-19T00:44:33.050Z,1003.65
2019-02-19T00:45:32.997Z,1003.66
2019-02-19T00:46:32.942Z,1003.64
2019-02-19T00:47:32.938Z,1003.64
2019-02-19T00:48:32.843Z,1003.63
2019-02-19T00:49:32.777Z,1003.66
2019-02-19T00:50:32.726Z,1003.62
2019-02-19T00:51:32.654Z,1003.64
2019-02-19T00:52:32.636Z,1003.59
2019-02-19T00:53:32.559Z,1003.58
2019-02-19T00:54:32.509Z,1003.60
2019-02-19T00:55:32.438Z,1003.61
2019-02-19T00:56:32.384Z,1003.58
2019-02-19T00:57:32.360Z,1003.55
2019-02-19T00:58:32.274Z,1003.58
2019-02-19T00:59:32.233Z,1003.58
2019-02-19T01:00:32.182Z,1003.56
2019-02-19T01:01:32.116Z,1003.52
2019-02-19T01:02:32.101Z,1003.50
2019-02-19T01:03:32.006Z,1003.55
2019-02-19T01:04:31.951Z,1003.54
2019-02-19T01:05:31.888Z,1003.54
2019-02-19T01:06:31.872Z,1003.52
2019-02-19T01:07:31.797Z,1003.54
2019-02-19T01:08:31.717Z,1003.53
2019-02-19T01:09:31.694Z,1003.57
2019-02-19T01:10:31.613Z,1003.58
2019-02-19T01:11:31.569Z,1003.58
2019-02-19T01:12:31.528Z,1003.55
2019-02-19T01:13:31.454Z,1003.54
2019-02-19T01:14:31.388Z,1003.58
2019-02-19T01:15:31.348Z,1003.56
2019-02-19T01:16:31.277Z,1003.56
2019-02-19T01:17:31.278Z,1003.60
2019-02-19T01:18:31.169Z,1003.65
2019-02-19T01:19:31.140Z,1003.65
2019-02-19T01:20:31.066Z,1003.64
2019-02-19T01:21:31.017Z,1003.62
2019-02-19T01:22:30.984Z,1003.60
2019-02-19T01:23:30.899Z,1003.55
2019-02-19T01:24:30.880Z,1003.59
2019-02-19T01:25:30.818Z,1003.55
2019-02-19T01:26:30.740Z,1003.56
2019-02-19T01:27:30.726Z,1003.55
2019-02-19T01:28:30.639Z,1003.60
2019-02-19T01:29:30.575Z,1003.59
2019-02-19T01:30:30.523Z,1003.60
2019-02-19T01:31:30.466Z,1003.55
2019-02-19T01:32:30.434Z,1003.53
2019-02-19T01:33:30.359Z,1003.51
2019-02-19T01:34:30.299Z,1003.51
2019-02-19T01:35:30.232Z,1003.53
2019-02-19T01:36:30.185Z,1003.51
2019-02-19T01:37:30.143Z,1003.48
2019-02-19T01:38:30.082Z,1003.50
2019-02-19T01:39:30.033Z,1003.45
2019-02-19T01:40:29.974Z,1003.52
2019-02-19T01:41:29.922Z,1003.50
2019-02-19T01:42:29.884Z,1003.57
2019-02-19T01:43:29.797Z,1003.53
2019-02-19T01:44:29.740Z,1003.56
2019-02-19T01:45:34.163Z,1003.54
2019-02-19T01:46:29.643Z,1003.55
2019-02-19T01:47:29.612Z,1003.53
2019-02-19T01:48:29.526Z,1003.54
2019-02-19T01:49:29.471Z,1003.50
2019-02-19T01:50:29.419Z,1003.51
2019-02-19T01:51:29.360Z,1003.53
2019-02-19T01:52:29.304Z,1003.49
2019-02-19T01:53:29.281Z,1003.47
2019-02-19T01:54:29.193Z,1003.46
2019-02-19T01:55:29.153Z,1003.46
2019-02-19T01:56:29.079Z,1003.44
2019-02-19T01:57:29.032Z,1003.40
2019-02-19T01:58:28.998Z,1003.43
2019-02-19T01:59:28.912Z,1003.42
2019-02-19T02:00:28.871Z,1003.45
2019-02-19T02:01:28.816Z,1003.35
2019-02-19T02:02:28.752Z,1003.39
2019-02-19T02:03:28.716Z,1003.31
2019-02-19T02:04:28.644Z,1003.33
2019-02-19T02:05:28.585Z,1003.34
2019-02-19T02:06:28.552Z,1003.32
2019-02-19T02:07:28.468Z,1003.35
2019-02-19T02:08:28.465Z,1003.39
2019-02-19T02:09:28.364Z,1003.35
2019-02-19T02:10:28.294Z,1003.34
2019-02-19T02:11:28.266Z,1003.34
2019-02-19T02:12:28.188Z,1003.32
2019-02-19T02:13:28.357Z,1003.35
2019-02-19T02:14:28.093Z,1003.32
2019-02-19T02:15:28.034Z,1003.27
2019-02-19T02:16:27.973Z,1003.25
2019-02-19T02:17:27.928Z,1003.30
2019-02-19T02:18:27.921Z,1003.29
2019-02-19T02:19:27.815Z,1003.30
2019-02-19T02:20:27.778Z,1003.26
2019-02-19T02:21:27.702Z,1003.23
2019-02-19T02:22:27.660Z,1003.21
2019-02-19T02:23:27.617Z,1003.25
2019-02-19T02:24:27.555Z,1003.25
2019-02-19T02:25:27.486Z,1003.23
2019-02-19T02:26:27.430Z,1003.26
2019-02-19T02:27:27.382Z,1003.30
2019-02-19T02:28:27.346Z,1003.26
2019-02-19T02:29:27.291Z,1003.28
2019-02-19T02:30:27.206Z,1003.24
2019-02-19T02:31:27.145Z,1003.26
2019-02-19T02:32:27.093Z,1003.25
2019-02-19T02:33:27.059Z,1003.23
2019-02-19T02:34:26.997Z,1003.24
2019-02-19T02:35:26.919Z,1003.23
2019-02-19T02:36:26.890Z,1003.21
2019-02-19T02:37:26.822Z,1003.22
2019-02-19T02:38:26.789Z,1003.23
2019-02-19T02:39:26.773Z,1003.25
2019-02-19T02:40:26.643Z,1003.24
2019-02-19T02:41:26.594Z,1003.29
2019-02-19T02:42:26.542Z,1003.26
2019-02-19T02:43:26.509Z,1003.25
2019-02-19T02:44:26.429Z,1003.23
2019-02-19T02:45:26.369Z,1003.29
2019-02-19T02:46:26.317Z,1003.27
2019-02-19T02:47:26.264Z,1003.27
2019-02-19T02:48:26.244Z,1003.25
2019-02-19T02:49:26.151Z,1003.33
2019-02-19T02:50:26.098Z,1003.34
2019-02-19T02:51:26.041Z,1003.35
2019-02-19T02:52:25.986Z,1003.31
2019-02-19T02:53:25.953Z,1003.32
2019-02-19T02:54:25.875Z,1003.29
2019-02-19T02:55:25.831Z,1003.30
2019-02-19T02:56:25.774Z,1003.28
2019-02-19T02:57:25.710Z,1003.29
2019-02-19T02:58:25.692Z,1003.28
2019-02-19T02:59:25.603Z,1003.31
2019-02-19T03:00:25.547Z,1003.33
2019-02-19T03:01:25.488Z,1003.33
2019-02-19T03:02:25.436Z,1003.32
2019-02-19T03:03:25.405Z,1003.29
2019-02-19T03:04:25.328Z,1003.32
2019-02-19T03:05:25.451Z,1003.31
2019-02-19T03:06:25.207Z,1003.36
2019-02-19T03:07:25.890Z,1003.37
2019-02-19T03:08:25.130Z,1003.41
2019-02-19T03:09:25.049Z,1003.38
2019-02-19T03:10:24.986Z,1003.38
2019-02-19T03:11:24.934Z,1003.34
2019-02-19T03:12:24.877Z,1003.29
2019-02-19T03:13:24.851Z,1003.32
2019-02-19T03:14:24.783Z,1003.31
2019-02-19T03:15:24.694Z,1003.30
2019-02-19T03:16:24.637Z,1003.28
2019-02-19T03:17:24.609Z,1003.30
2019-02-19T03:18:24.577Z,1003.29
2019-02-19T03:19:24.507Z,1003.30
2019-02-19T03:20:24.431Z,1003.27
2019-02-19T03:21:24.373Z,1003.29
2019-02-19T03:22:24.332Z,1003.32
2019-02-19T03:23:24.318Z,1003.27
2019-02-19T03:24:24.222Z,1003.26
2019-02-19T03:25:24.157Z,1003.30
2019-02-19T03:26:24.104Z,1003.29
2019-02-19T03:27:24.045Z,1003.32
2019-02-19T03:28:24.012Z,1003.29
2019-02-19T03:29:23.980Z,1003.29
2019-02-19T03:30:23.879Z,1003.31
2019-02-19T03:31:23.822Z,1003.32
2019-02-19T03:32:23.801Z,1003.37
2019-02-19T03:33:23.720Z,1003.35
2019-02-19T03:34:23.720Z,1003.39
2019-02-19T03:35:23.606Z,1003.37
2019-02-19T03:36:23.560Z,1003.39
2019-02-19T03:37:23.518Z,1003.38
2019-02-19T03:38:23.453Z,1003.35
2019-02-19T03:39:23.439Z,1003.37
2019-02-19T03:40:23.351Z,1003.39
2019-02-19T03:41:23.284Z,1003.40
2019-02-19T03:42:23.263Z,1003.48
2019-02-19T03:43:23.180Z,1003.46
2019-02-19T03:44:23.155Z,1003.44
2019-02-19T03:45:23.073Z,1003.43
2019-02-19T03:46:23.015Z,1003.43
2019-02-19T03:47:22.961Z,1003.39
2019-02-19T03:48:22.913Z,1003.41
2019-02-19T03:49:22.877Z,1003.44
2019-02-19T03:50:22.800Z,1003.44
2019-02-19T03:51:22.752Z,1003.45
2019-02-19T03:52:22.693Z,1003.45
2019-02-19T03:53:22.649Z,1003.47
2019-02-19T03:54:22.605Z,1003.47
2019-02-19T03:55:22.511Z,1003.50
2019-02-19T03:56:22.467Z,1003.47
2019-02-19T03:57:22.410Z,1003.52
2019-02-19T03:58:22.352Z,1003.51
2019-02-19T03:59:22.322Z,1003.57
2019-02-19T04:00:22.234Z,1003.62
2019-02-19T04:01:22.197Z,1003.60
2019-02-19T04:02:22.136Z,1003.59
2019-02-19T04:03:22.077Z,1003.63
2019-02-19T04:04:22.081Z,1003.59
2019-02-19T04:05:22.002Z,1003.57
2019-02-19T04:06:21.928Z,1003.58
2019-02-19T04:07:21.863Z,1003.57
2019-02-19T04:08:21.821Z,1003.56
2019-02-19T04:09:21.778Z,1003.56
2019-02-19T04:10:21.711Z,1003.61
2019-02-19T04:11:21.643Z,1003.60
2019-02-19T04:12:21.603Z,1003.61
2019-02-19T04:13:21.549Z,1003.65
2019-02-19T04:14:21.511Z,1003.63
2019-02-19T04:15:21.424Z,1003.65
2019-02-19T04:16:21.633Z,1003.69
2019-02-19T04:17:21.324Z,1003.67
2019-02-19T04:18:21.271Z,1003.71
2019-02-19T04:19:21.231Z,1003.71
2019-02-19T04:20:21.170Z,1003.72
2019-02-19T04:21:21.108Z,1003.72
2019-02-19T04:22:21.055Z,1003.68
2019-02-19T04:23:21.001Z,1003.67
2019-02-19T04:24:20.965Z,1003.60
2019-02-19T04:25:20.902Z,1003.62
2019-02-19T04:26:20.848Z,1003.60
2019-02-19T04:27:20.780Z,1003.61
2019-02-19T04:28:20.744Z,1003.63
2019-02-19T04:29:20.711Z,1003.62
2019-02-19T04:30:20.624Z,1003.61
2019-02-19T04:31:20.565Z,1003.69
2019-02-19T04:32:20.516Z,1003.74
2019-02-19T04:33:20.474Z,1003.76
2019-02-19T04:34:20.450Z,1003.79
2019-02-19T04:35:20.349Z,1003.83
2019-02-19T04:36:20.316Z,1003.79
2019-02-19T04:37:20.245Z,1003.83
2019-02-19T04:38:20.183Z,1003.84
2019-02-19T04:39:20.160Z,1003.87
2019-02-19T04:40:20.077Z,1003.91
2019-02-19T04:41:20.025Z,1003.90
2019-02-19T04:42:19.975Z,1003.92
2019-02-19T04:43:19.931Z,1003.91
2019-02-19T04:44:19.894Z,1003.92
2019-02-19T04:45:19.823Z,1003.92
2019-02-19T04:46:19.763Z,1003.91
2019-02-19T04:47:19.704Z,1003.87
2019-02-19T04:48:19.646Z,1003.92
2019-02-19T04:49:19.682Z,1003.90
2019-02-19T04:50:19.838Z,1003.90
2019-02-19T04:51:19.479Z,1003.88
2019-02-19T04:52:19.434Z,1003.85
2019-02-19T04:53:19.388Z,1003.78
2019-02-19T04:54:19.351Z,1003.79
2019-02-19T04:55:19.278Z,1003.84
2019-02-19T04:56:19.224Z,1003.85
2019-02-19T04:57:19.188Z,1003.89
2019-02-19T04:58:19.108Z,1003.85
2019-02-19T04:59:19.184Z,1003.85
2019-02-19T05:00:19.010Z,1003.85
2019-02-19T05:01:18.975Z,1003.83
2019-02-19T05:02:18.928Z,1003.82
2019-02-19T05:03:18.857Z,1003.85
2019-02-19T05:04:18.787Z,1003.84
2019-02-19T05:05:18.751Z,1003.85
2019-02-19T05:06:18.729Z,1003.86
2019-02-19T05:07:18.624Z,1003.83
2019-02-19T05:08:18.574Z,1003.92
2019-02-19T05:09:18.517Z,1003.95
2019-02-19T05:10:18.525Z,1004.03
2019-02-19T05:11:18.499Z,1003.98
2019-02-19T05:12:18.359Z,1004.03
2019-02-19T05:13:18.369Z,1004.02
2019-02-19T05:14:18.289Z,1004.02
2019-02-19T05:15:18.241Z,1004.01
2019-02-19T05:16:18.168Z,1004.01
2019-02-19T05:17:18.077Z,1004.05
2019-02-19T05:18:18.038Z,1004.10
2019-02-19T05:19:17.975Z,1004.16
2019-02-19T05:20:17.957Z,1004.15
2019-02-19T05:21:17.866Z,1004.20
2019-02-19T05:22:17.817Z,1004.19
2019-02-19T05:23:17.760Z,1004.21
2019-02-19T05:24:17.716Z,1004.20
2019-02-19T05:25:17.680Z,1004.25
2019-02-19T05:26:17.597Z,1004.19
2019-02-19T05:27:17.535Z,1004.25
2019-02-19T05:28:17.516Z,1004.26
2019-02-19T05:29:17.434Z,1004.24
2019-02-19T05:30:17.399Z,1004.19
2019-02-19T05:31:17.323Z,1004.16
2019-02-19T05:32:17.295Z,1004.15
2019-02-19T05:33:17.227Z,1004.15
2019-02-19T05:34:17.194Z,1004.19
2019-02-19T05:35:17.151Z,1004.20
2019-02-19T05:36:17.081Z,1004.18
2019-02-19T05:37:17.021Z,1004.22
2019-02-19T05:38:16.955Z,1004.22
2019-02-19T05:39:16.886Z,1004.21
2019-02-19T05:40:16.926Z,1004.17
2019-02-19T05:41:16.780Z,1004.09
2019-02-19T05:42:16.759Z,1004.07
2019-02-19T05:43:16.670Z,1004.03
2019-02-19T05:44:16.628Z,1004.08
2019-02-19T05:45:16.598Z,1004.17
2019-02-19T05:46:16.514Z,1004.17
2019-02-19T05:47:16.494Z,1004.18
2019-02-19T05:48:16.406Z,1004.11
2019-02-19T05:49:16.343Z,1004.09
2019-02-19T05:50:16.306Z,1004.09
2019-02-19T05:51:16.241Z,1004.12
2019-02-19T05:52:16.188Z,1004.18
2019-02-19T05:53:16.150Z,1004.17
2019-02-19T05:54:16.110Z,1004.18
2019-02-19T05:55:16.109Z,1004.24
2019-02-19T05:56:15.996Z,1004.25
2019-02-19T05:57:15.911Z,1004.25
2019-02-19T05:58:15.898Z,1004.25
2019-02-19T05:59:15.848Z,1004.26
2019-02-19T06:00:15.848Z,1004.24
2019-02-19T06:01:15.703Z,1004.30
2019-02-19T06:02:15.647Z,1004.36
2019-02-19T06:03:15.633Z,1004.34
2019-02-19T06:04:15.535Z,1004.29
2019-02-19T06:05:15.498Z,1004.31
2019-02-19T06:06:15.434Z,1004.31
2019-02-19T06:07:15.368Z,1004.37
2019-02-19T06:08:15.325Z,1004.36
2019-02-19T06:09:15.284Z,1004.35
2019-02-19T06:10:15.285Z,1004.36
2019-02-19T06:11:15.152Z,1004.39
2019-02-19T06:12:15.106Z,1004.36
2019-02-19T06:13:15.041Z,1004.31
2019-02-19T06:14:14.994Z,1004.28
2019-02-19T06:15:14.962Z,1004.32
2019-02-19T06:16:14.885Z,1004.36
2019-02-19T06:17:14.822Z,1004.35
2019-02-19T06:18:14.998Z,1004.39
2019-02-19T06:19:14.710Z,1004.42
2019-02-19T06:20:14.683Z,1004.47
2019-02-19T06:21:14.606Z,1004.42
2019-02-19T06:22:14.554Z,1004.44
2019-02-19T06:23:14.501Z,1004.41
2019-02-19T06:24:14.476Z,1004.40
2019-02-19T06:25:14.469Z,1004.40
2019-02-19T06:26:14.335Z,1004.39
2019-02-19T06:27:14.280Z,1004.45
2019-02-19T06:28:14.229Z,1004.45
2019-02-19T06:29:14.174Z,1004.46
2019-02-19T06:30:14.133Z,1004.45
2019-02-19T06:31:14.087Z,1004.46
2019-02-19T06:32:14.007Z,1004.47
2019-02-19T06:33:13.955Z,1004.47
2019-02-19T06:34:14.303Z,1004.45
2019-02-19T06:35:13.868Z,1004.48
2019-02-19T06:36:13.797Z,1004.54
2019-02-19T06:37:13.749Z,1004.48
2019-02-19T06:38:13.680Z,1004.50
2019-02-19T06:39:13.627Z,1004.48
2019-02-19T06:40:13.644Z,1004.57
2019-02-19T06:41:13.515Z,1004.57
2019-02-19T06:42:13.461Z,1004.60
2019-02-19T06:43:13.414Z,1004.63
2019-02-19T06:44:13.359Z,1004.60
2019-02-19T06:45:13.306Z,1004.63
2019-02-19T06:46:13.274Z,1004.66
2019-02-19T06:47:13.210Z,1004.63
2019-02-19T06:48:13.147Z,1004.66
2019-02-19T06:49:13.091Z,1004.68
2019-02-19T06:50:13.045Z,1004.70
2019-02-19T06:51:13.031Z,1004.69
2019-02-19T06:52:12.928Z,1004.67
2019-02-19T06:53:12.886Z,1004.64
2019-02-19T06:54:12.833Z,1004.63
2019-02-19T06:55:12.764Z,1004.66
2019-02-19T06:56:12.732Z,1004.69
2019-02-19T06:57:12.689Z,1004.68
2019-02-19T06:58:12.613Z,1004.75
2019-02-19T06:59:12.549Z,1004.75
2019-02-19T07:00:12.490Z,1004.80
2019-02-19T07:01:12.474Z,1004.82
2019-02-19T07:02:12.379Z,1004.80
2019-02-19T07:03:12.317Z,1004.84
2019-02-19T07:04:12.284Z,1004.85
2019-02-19T07:05:12.224Z,1004.86
2019-02-19T07:06:12.199Z,1004.86
2019-02-19T07:07:12.144Z,1004.97
2019-02-19T07:08:12.075Z,1004.93
2019-02-19T07:09:12.001Z,1004.94
2019-02-19T07:10:11.961Z,1004.96
2019-02-19T07:11:11.934Z,1004.98
2019-02-19T07:12:11.864Z,1004.96
2019-02-19T07:13:11.794Z,1005.02
2019-02-19T07:14:11.730Z,1005.04
2019-02-19T07:15:11.681Z,1005.05
2019-02-19T07:16:11.657Z,1005.11
2019-02-19T07:17:15.643Z,1005.08
2019-02-19T07:18:11.507Z,1005.10
2019-02-19T07:19:11.470Z,1005.09
2019-02-19T07:20:11.417Z,1005.08
2019-02-19T07:21:11.391Z,1005.11
2019-02-19T07:22:11.310Z,1005.10
2019-02-19T07:23:11.259Z,1005.12
2019-02-19T07:24:11.177Z,1005.09
2019-02-19T07:25:11.150Z,1005.11
2019-02-19T07:26:11.095Z,1005.15
2019-02-19T07:27:11.053Z,1005.14
2019-02-19T07:28:10.985Z,1005.14
2019-02-19T07:29:10.928Z,1005.16
2019-02-19T07:30:10.904Z,1005.18
2019-02-19T07:31:10.842Z,1005.11
2019-02-19T07:32:10.764Z,1005.12
2019-02-19T07:33:10.736Z,1005.13
2019-02-19T07:34:10.639Z,1005.19
2019-02-19T07:35:10.594Z,1005.23
2019-02-19T07:36:10.594Z,1005.23
2019-02-19T07:37:10.509Z,1005.25
2019-02-19T07:38:10.440Z,1005.28
2019-02-19T07:39:10.385Z,1005.26
2019-02-19T07:40:10.327Z,1005.25
2019-02-19T07:41:10.311Z,1005.30
2019-02-19T07:42:10.205Z,1005.32
2019-02-19T07:43:10.182Z,1005.34
2019-02-19T07:44:10.128Z,1005.31
2019-02-19T07:45:10.062Z,1005.33
2019-02-19T07:46:10.034Z,1005.29
2019-02-19T07:47:09.942Z,1005.31
2019-02-19T07:48:09.890Z,1005.33
2019-02-19T07:49:09.836Z,1005.36
2019-02-19T07:50:09.785Z,1005.35
2019-02-19T07:51:09.754Z,1005.38
2019-02-19T07:52:09.683Z,1005.36
2019-02-19T07:53:09.642Z,1005.36
2019-02-19T07:54:09.573Z,1005.33
2019-02-19T07:55:09.516Z,1005.38
2019-02-19T07:56:09.489Z,1005.37
2019-02-19T07:57:09.417Z,1005.45
2019-02-19T07:58:09.341Z,1005.43
2019-02-19T07:59:09.300Z,1005.43
2019-02-19T08:00:09.250Z,1005.37
2019-02-19T08:01:09.214Z,1005.39
2019-02-19T08:02:09.144Z,1005.43
2019-02-19T08:03:09.091Z,1005.39
2019-02-19T08:04:09.030Z,1005.40
2019-02-19T08:05:08.975Z,1005.42
2019-02-19T08:06:08.964Z,1005.46
2019-02-19T08:07:08.879Z,1005.45
2019-02-19T08:08:08.810Z,1005.48
2019-02-19T08:09:08.762Z,1005.46
2019-02-19T08:10:08.701Z,1005.47
2019-02-19T08:11:08.698Z,1005.47
2019-02-19T08:12:08.600Z,1005.55
2019-02-19T08:13:08.567Z,1005.55
2019-02-19T08:14:08.491Z,1005.53
2019-02-19T08:15:08.443Z,1005.60
2019-02-19T08:16:08.427Z,1005.60
2019-02-19T08:17:08.336Z,1005.54
2019-02-19T08:18:08.284Z,1005.57
2019-02-19T08:19:08.289Z,1005.58
2019-02-19T08:20:15.347Z,1005.63
2019-02-19T08:21:08.126Z,1005.63
2019-02-19T08:22:08.108Z,1005.64
2019-02-19T08:23:08.006Z,1005.61
2019-02-19T08:24:07.951Z,1005.62
2019-02-19T08:25:07.897Z,1005.62
2019-02-19T08:26:07.843Z,1005.64
2019-02-19T08:27:07.830Z,1005.65
2019-02-19T08:28:07.751Z,1005.73
2019-02-19T08:29:13.753Z,1005.71
2019-02-19T08:30:07.652Z,1005.72
2019-02-19T08:31:07.585Z,1005.75
2019-02-19T08:32:07.578Z,1005.75
2019-02-19T08:33:07.472Z,1005.70
2019-02-19T08:34:07.433Z,1005.74
2019-02-19T08:35:07.387Z,1005.78
2019-02-19T08:36:07.322Z,1005.74
2019-02-19T08:37:07.286Z,1005.75
2019-02-19T08:38:07.212Z,1005.78
2019-02-19T08:39:07.155Z,1005.78
2019-02-19T08:40:07.108Z,1005.76
2019-02-19T08:41:07.040Z,1005.77
2019-02-19T08:42:07.018Z,1005.81
2019-02-19T08:43:06.937Z,1005.85
2019-02-19T08:44:08.448Z,1005.79
2019-02-19T08:45:06.833Z,1005.82
2019-02-19T08:46:06.775Z,1005.73
2019-02-19T08:47:06.746Z,1005.76
2019-02-19T08:48:06.685Z,1005.80
2019-02-19T08:49:06.620Z,1005.87
2019-02-19T08:50:06.566Z,1005.81
2019-02-19T08:51:06.527Z,1005.83
2019-02-19T08:52:06.486Z,1005.85
2019-02-19T08:53:06.403Z,1005.92
2019-02-19T08:54:06.344Z,1005.88
2019-02-19T08:55:06.310Z,1005.87
2019-02-19T08:56:06.252Z,1005.90
2019-02-19T08:57:06.215Z,1005.95
2019-02-19T08:58:06.147Z,1005.95
2019-02-19T08:59:06.068Z,1005.92
2019-02-19T09:00:06.032Z,1005.94
2019-02-19T09:01:05.996Z,1005.90
2019-02-19T09:02:05.963Z,1005.89
2019-02-19T09:03:05.886Z,1005.94
2019-02-19T09:04:05.803Z,1005.99
2019-02-19T09:05:05.765Z,1005.92
2019-02-19T09:06:05.692Z,1005.96
2019-02-19T09:07:05.696Z,1005.95
2019-02-19T09:08:05.592Z,1005.96
2019-02-19T09:09:05.544Z,1005.96
2019-02-19T09:10:05.484Z,1006.02
2019-02-19T09:11:05.433Z,1006.02
2019-02-19T09:12:05.427Z,1006.04
2019-02-19T09:13:05.335Z,1006.02
2019-02-19T09:14:05.260Z,1005.98
2019-02-19T09:15:05.210Z,1005.97
2019-02-19T09:16:05.211Z,1005.94
2019-02-19T09:17:05.153Z,1005.95
2019-02-19T09:18:05.057Z,1005.92
2019-02-19T09:19:05.005Z,1005.93
2019-02-19T09:20:04.945Z,1005.93
2019-02-19T09:21:04.895Z,1005.91
2019-02-19T09:22:04.860Z,1005.94
2019-02-19T09:23:04.797Z,1005.93
2019-02-19T09:24:09.542Z,1005.92
2019-02-19T09:25:04.678Z,1005.90
2019-02-19T09:26:04.628Z,1005.93
2019-02-19T09:27:04.619Z,1005.92
2019-02-19T09:28:04.523Z,1005.92
2019-02-19T09:29:04.467Z,1005.98
2019-02-19T09:30:04.422Z,1005.94
2019-02-19T09:31:04.374Z,1005.94
2019-02-19T09:32:04.343Z,1005.94
2019-02-19T09:33:04.263Z,1005.95
2019-02-19T09:34:04.207Z,1005.96
2019-02-19T09:35:04.169Z,1005.98
2019-02-19T09:36:04.101Z,1006.01
2019-02-19T09:37:04.075Z,1005.97
2019-02-19T09:38:03.977Z,1006.00
2019-02-19T09:39:03.950Z,1005.96
2019-02-19T09:40:03.906Z,1006.04
2019-02-19T09:41:03.816Z,1005.97
2019-02-19T09:42:03.816Z,1005.99
2019-02-19T09:43:03.714Z,1005.99
2019-02-19T09:44:03.663Z,1006.05
2019-02-19T09:45:03.629Z,1006.04
2019-02-19T09:46:03.587Z,1006.00
2019-02-19T09:47:03.512Z,1006.01
2019-02-19T09:48:03.467Z,1006.06
2019-02-19T09:49:03.410Z,1006.04
2019-02-19T09:50:03.354Z,1006.05
2019-02-19T09:51:03.279Z,1006.11
2019-02-19T09:52:03.239Z,1006.13
2019-02-19T09:53:03.220Z,1006.10
2019-02-19T09:54:03.133Z,1006.11
2019-02-19T09:55:03.078Z,1006.12
2019-02-19T09:56:03.035Z,1006.09
2019-02-19T09:57:02.975Z,1006.01
2019-02-19T09:58:02.967Z,1006.15
2019-02-19T09:59:02.874Z,1006.10
2019-02-19T10:00:02.820Z,1006.06
2019-02-19T10:01:02.775Z,1006.09
2019-02-19T10:02:02.714Z,1006.11
2019-02-19T10:03:02.707Z,1006.15
2019-02-19T10:04:02.632Z,1006.13
2019-02-19T10:05:02.583Z,1006.16
2019-02-19T10:06:02.516Z,1006.19
2019-02-19T10:07:02.494Z,1006.14
2019-02-19T10:08:02.444Z,1006.16
2019-02-19T10:09:02.354Z,1006.17
2019-02-19T10:10:02.306Z,1006.19
2019-02-19T10:11:02.239Z,1006.17
2019-02-19T10:12:02.183Z,1006.16
2019-02-19T10:13:02.162Z,1006.12
2019-02-19T10:14:02.088Z,1006.19
2019-02-19T10:15:02.031Z,1006.19
2019-02-19T10:16:01.973Z,1006.17
2019-02-19T10:17:01.932Z,1006.16
2019-02-19T10:18:09.699Z,1006.15
2019-02-19T10:19:01.824Z,1006.12
2019-02-19T10:20:01.771Z,1006.18
2019-02-19T10:21:01.704Z,1006.21
2019-02-19T10:22:01.671Z,1006.19
2019-02-19T10:23:01.653Z,1006.19
2019-02-19T10:24:01.545Z,1006.19
2019-02-19T10:25:01.496Z,1006.22
2019-02-19T10:26:01.449Z,1006.19
2019-02-19T10:27:01.415Z,1006.22
2019-02-19T10:28:01.367Z,1006.13
2019-02-19T10:29:01.328Z,1006.14
2019-02-19T10:30:01.238Z,1006.18
2019-02-19T10:31:01.190Z,1006.21
2019-02-19T10:32:01.156Z,1006.25
2019-02-19T10:33:01.128Z,1006.19
2019-02-19T10:34:01.036Z,1006.30
2019-02-19T10:35:00.977Z,1006.23
2019-02-19T10:36:00.939Z,1006.28
2019-02-19T10:37:00.872Z,1006.28
2019-02-19T10:38:00.879Z,1006.27
2019-02-19T10:39:00.771Z,1006.27
2019-02-19T10:40:00.708Z,1006.25
2019-02-19T10:41:00.687Z,1006.29
2019-02-19T10:42:00.593Z,1006.23
2019-02-19T10:43:00.606Z,1006.31
2019-02-19T10:44:00.505Z,1006.25
2019-02-19T10:45:00.473Z,1006.38
2019-02-19T10:46:00.397Z,1006.37
2019-02-19T10:47:00.331Z,1006.35
2019-02-19T10:48:00.333Z,1006.30
2019-02-19T10:49:00.262Z,1006.23
2019-02-19T10:50:00.286Z,1006.30
2019-02-19T10:51:00.129Z,1006.33
2019-02-19T10:52:00.080Z,1006.30
2019-02-19T10:53:00.057Z,1006.37
2019-02-19T10:53:59.979Z,1006.32
2019-02-19T10:54:59.941Z,1006.32
2019-02-19T10:55:59.869Z,1006.32
2019-02-19T10:56:59.826Z,1006.33
2019-02-19T10:57:59.785Z,1006.36
2019-02-19T10:58:59.709Z,1006.28
2019-02-19T10:59:59.654Z,1006.31
2019-02-19T11:00:59.596Z,1006.34
2019-02-19T11:01:59.567Z,1006.32
2019-02-19T11:02:59.566Z,1006.30
2019-02-19T11:03:59.447Z,1006.32
2019-02-19T11:04:59.403Z,1006.30
2019-02-19T11:05:59.349Z,1006.29
2019-02-19T11:06:59.292Z,1006.33
2019-02-19T11:07:59.278Z,1006.28
2019-02-19T11:08:59.241Z,1006.32
2019-02-19T11:09:59.158Z,1006.30
2019-02-19T11:10:59.068Z,1006.31
2019-02-19T11:11:59.022Z,1006.28
2019-02-19T11:12:58.996Z,1006.29
2019-02-19T11:13:58.933Z,1006.28
2019-02-19T11:14:58.892Z,1006.28
2019-02-19T11:15:58.814Z,1006.32
2019-02-19T11:16:58.767Z,1006.23
2019-02-19T11:17:58.733Z,1006.25
2019-02-19T11:18:58.672Z,1006.22
2019-02-19T11:19:58.617Z,1006.28
2019-02-19T11:20:58.561Z,1006.25
2019-02-19T11:21:58.510Z,1006.25
2019-02-19T11:22:58.480Z,1006.28
2019-02-19T11:23:58.404Z,1006.25
2019-02-19T11:24:58.336Z,1006.25
2019-02-19T11:25:58.300Z,1006.27
2019-02-19T11:26:58.246Z,1006.26
2019-02-19T11:27:58.184Z,1006.26
2019-02-19T11:28:58.157Z,1006.34
2019-02-19T11:29:58.081Z,1006.24
2019-02-19T11:30:58.018Z,1006.21
2019-02-19T11:31:57.970Z,1006.19
2019-02-19T11:32:57.960Z,1006.17
2019-02-19T11:33:57.907Z,1006.20
2019-02-19T11:34:57.829Z,1006.19
2019-02-19T11:35:57.795Z,1006.20
2019-02-19T11:36:57.726Z,1006.15
2019-02-19T11:37:57.670Z,1006.16
2019-02-19T11:38:57.659Z,1006.09
2019-02-19T11:39:57.582Z,1006.10
2019-02-19T11:40:57.509Z,1006.14
2019-02-19T11:41:57.449Z,1006.13
2019-02-19T11:42:57.404Z,1006.18
2019-02-19T11:43:57.405Z,1006.20
2019-02-19T11:44:57.297Z,1006.23
2019-02-19T11:45:57.244Z,1006.19
2019-02-19T11:46:57.185Z,1006.20
2019-02-19T11:47:57.132Z,1006.22
2019-02-19T11:48:57.133Z,1006.22
2019-02-19T11:49:57.047Z,1006.27
2019-02-19T11:50:56.988Z,1006.27
2019-02-19T11:51:56.938Z,1006.21
2019-02-19T11:52:56.876Z,1006.24
2019-02-19T11:53:56.861Z,1006.21
2019-02-19T11:54:56.796Z,1006.25
2019-02-19T11:55:56.726Z,1006.31
2019-02-19T11:56:56.671Z,1006.20
2019-02-19T11:57:56.623Z,1006.17
2019-02-19T11:58:56.591Z,1006.19
2019-02-19T11:59:56.525Z,1006.10
2019-02-19T12:00:56.461Z,1006.12
2019-02-19T12:01:56.421Z,1006.25
2019-02-19T12:02:56.353Z,1006.20
2019-02-19T12:03:56.373Z,1006.12
2019-02-19T12:04:56.273Z,1006.11